createdAt,value
2022-08-30T00:01:33.716Z,76.73
2022-08-30T00:04:07.220Z,76.22
2022-08-30T00:06:39.619Z,77.08
2022-08-30T00:09:12.126Z,77.52
2022-08-30T00:11:44.620Z,77.53
2022-08-30T00:14:17.088Z,77.49
2022-08-30T00:16:50.810Z,78.12
2022-08-30T00:19:23.317Z,78.30
2022-08-30T00:21:55.742Z,78.49
2022-08-30T00:24:28.232Z,78.90
2022-08-30T00:27:00.642Z,79.51
2022-08-30T00:29:33.103Z,79.53
2022-08-30T00:32:05.705Z,79.78
2022-08-30T00:34:38.455Z,79.60
2022-08-30T00:37:10.945Z,79.78
2022-08-30T00:39:43.571Z,80.24
2022-08-30T00:42:17.484Z,79.82
2022-08-30T00:44:50.468Z,79.80
2022-08-30T00:47:22.901Z,80.33
2022-08-30T00:49:57.919Z,80.22
2022-08-30T00:52:30.456Z,80.19
2022-08-30T00:55:04.622Z,80.02
2022-08-30T00:57:37.119Z,79.67
2022-08-30T01:00:10.793Z,79.59
2022-08-30T01:02:43.954Z,79.70
2022-08-30T01:05:16.553Z,79.18
2022-08-30T01:07:49.369Z,78.92
2022-08-30T01:10:23.051Z,79.07
2022-08-30T01:12:55.535Z,78.41
2022-08-30T01:15:28.297Z,78.37
2022-08-30T01:18:03.121Z,78.45
2022-08-30T01:20:49.795Z,78.36
2022-08-30T01:23:25.612Z,78.26
2022-08-30T01:26:02.304Z,78.28
2022-08-30T01:28:35.312Z,78.24
2022-08-30T01:31:08.495Z,78.40
2022-08-30T01:33:41.464Z,78.18
2022-08-30T01:36:15.243Z,78.46
2022-08-30T01:38:54.008Z,78.90
2022-08-30T01:41:35.372Z,79.05
2022-08-30T01:44:13.422Z,79.03
2022-08-30T01:46:47.886Z,79.28
2022-08-30T01:49:27.885Z,79.66
2022-08-30T01:52:01.544Z,79.67
2022-08-30T01:54:37.031Z,80.02
2022-08-30T01:57:14.048Z,80.33
2022-08-30T01:59:47.790Z,80.57
2022-08-30T02:02:25.825Z,80.40
2022-08-30T02:04:58.510Z,80.24
2022-08-30T02:07:31.007Z,80.67
2022-08-30T02:10:04.833Z,80.86
2022-08-30T02:12:37.312Z,81.04
2022-08-30T02:15:10.029Z,81.01
2022-08-30T02:17:42.464Z,81.21
2022-08-30T02:20:14.904Z,80.94
2022-08-30T02:22:49.308Z,81.16
2022-08-30T02:25:22.106Z,81.18
2022-08-30T02:27:54.560Z,81.27
2022-08-30T02:30:27.412Z,81.64
2022-08-30T02:33:00.297Z,81.73
2022-08-30T02:35:33.252Z,81.65
2022-08-30T02:38:06.005Z,81.80
2022-08-30T02:40:39.284Z,82.08
2022-08-30T02:43:12.146Z,81.91
2022-08-30T02:45:44.854Z,82.20
2022-08-30T02:48:17.450Z,81.93
2022-08-30T02:50:52.292Z,82.09
2022-08-30T02:53:24.765Z,81.81
2022-08-30T02:55:59.593Z,81.94
2022-08-30T02:58:32.348Z,82.33
2022-08-30T03:01:05.782Z,82.25
2022-08-30T03:03:38.581Z,82.05
2022-08-30T03:06:11.164Z,82.34
2022-08-30T03:08:43.578Z,82.21
2022-08-30T03:11:15.981Z,82.51
2022-08-30T03:13:48.541Z,82.61
2022-08-30T03:16:22.586Z,82.70
2022-08-30T03:18:55.204Z,82.50
2022-08-30T03:21:27.645Z,82.51
2022-08-30T03:24:00.235Z,82.30
2022-08-30T03:26:32.713Z,82.06
2022-08-30T03:29:05.234Z,81.74
2022-08-30T03:31:37.735Z,81.76
2022-08-30T03:34:26.151Z,81.49
2022-08-30T03:37:01.174Z,81.57
2022-08-30T03:39:33.675Z,81.33
2022-08-30T03:42:06.432Z,81.38
2022-08-30T03:44:39.043Z,81.59
2022-08-30T03:47:12.662Z,81.60
2022-08-30T03:49:45.175Z,81.86
2022-08-30T03:52:17.594Z,81.59
2022-08-30T03:54:51.183Z,81.83
2022-08-30T03:57:24.554Z,81.88
2022-08-30T03:59:57.211Z,81.89
2022-08-30T04:02:29.701Z,81.96
2022-08-30T04:05:02.435Z,81.98
2022-08-30T04:07:35.376Z,82.00
2022-08-30T04:10:10.068Z,81.89
2022-08-30T04:12:47.451Z,82.35
2022-08-30T04:15:22.357Z,82.42
2022-08-30T04:17:55.096Z,82.87
2022-08-30T04:20:27.485Z,82.83
2022-08-30T04:23:00.045Z,83.08
2022-08-30T04:25:34.429Z,83.35
2022-08-30T04:28:08.459Z,83.05
2022-08-30T04:30:43.889Z,83.25
2022-08-30T04:33:17.850Z,83.27
2022-08-30T04:35:50.559Z,83.03
2022-08-30T04:38:25.593Z,83.07
2022-08-30T04:41:01.221Z,82.69
2022-08-30T04:43:34.093Z,82.44
2022-08-30T04:46:08.692Z,82.63
2022-08-30T04:48:41.378Z,82.45
2022-08-30T04:51:16.327Z,82.28
2022-08-30T04:53:48.767Z,82.55
2022-08-30T04:56:23.785Z,82.62
2022-08-30T04:58:56.367Z,82.37
2022-08-30T05:01:31.420Z,82.68
2022-08-30T05:04:04.180Z,82.73
2022-08-30T05:06:36.812Z,83.13
2022-08-30T05:09:09.415Z,82.97
2022-08-30T05:11:43.220Z,83.30
2022-08-30T05:14:15.675Z,83.77
2022-08-30T05:16:48.077Z,83.60
2022-08-30T05:19:20.563Z,83.93
2022-08-30T05:21:52.996Z,83.58
2022-08-30T05:24:26.408Z,83.88
2022-08-30T05:26:59.165Z,83.42
2022-08-30T05:29:31.795Z,83.39
2022-08-30T05:32:04.310Z,83.07
2022-08-30T05:34:36.817Z,83.33
2022-08-30T05:37:09.241Z,82.69
2022-08-30T05:39:51.260Z,82.39
2022-08-30T05:42:24.322Z,82.08
2022-08-30T05:44:56.875Z,81.74
2022-08-30T05:47:29.321Z,81.70
2022-08-30T05:50:02.279Z,81.47
2022-08-30T05:52:39.096Z,81.37
2022-08-30T05:55:12.571Z,81.37
2022-08-30T05:57:44.964Z,81.22
2022-08-30T06:00:18.853Z,81.26
2022-08-30T06:02:54.433Z,80.98
2022-08-30T06:05:26.791Z,80.81
2022-08-30T06:07:59.542Z,80.56
2022-08-30T06:10:32.007Z,80.31
2022-08-30T06:13:04.521Z,80.03
2022-08-30T06:15:38.092Z,79.73
2022-08-30T06:18:14.441Z,79.39
2022-08-30T06:20:51.177Z,78.88
2022-08-30T06:23:23.669Z,78.78
2022-08-30T06:25:56.759Z,78.62
2022-08-30T06:28:29.341Z,78.29
2022-08-30T06:31:01.982Z,78.31
2022-08-30T06:33:34.490Z,78.45
2022-08-30T06:36:09.813Z,77.83
2022-08-30T06:38:42.321Z,77.88
2022-08-30T06:41:18.393Z,77.88
2022-08-30T06:43:51.347Z,77.73
2022-08-30T06:46:29.710Z,76.94
2022-08-30T06:49:03.007Z,76.79
2022-08-30T06:51:39.841Z,76.27
2022-08-30T06:54:12.786Z,76.22
2022-08-30T06:56:58.051Z,75.86
2022-08-30T06:59:32.363Z,75.49
2022-08-30T07:02:06.242Z,75.46
2022-08-30T07:04:38.720Z,74.80
2022-08-30T07:07:11.371Z,74.29
2022-08-30T07:09:44.451Z,73.50
2022-08-30T07:12:17.415Z,73.39
2022-08-30T07:14:49.870Z,72.85
2022-08-30T07:17:40.583Z,71.99
2022-08-30T07:20:13.809Z,71.40
2022-08-30T07:22:47.409Z,71.18
2022-08-30T07:25:19.955Z,70.22
2022-08-30T07:27:52.805Z,69.74
2022-08-30T07:30:25.261Z,69.61
2022-08-30T07:32:58.436Z,69.47
2022-08-30T07:35:32.024Z,68.77
2022-08-30T07:38:04.662Z,68.63
2022-08-30T07:40:38.219Z,68.48
2022-08-30T07:43:11.727Z,68.29
2022-08-30T07:45:44.479Z,68.39
2022-08-30T07:48:16.870Z,68.25
2022-08-30T07:50:51.661Z,68.07
2022-08-30T07:53:29.641Z,67.76
2022-08-30T07:56:02.272Z,67.45
2022-08-30T07:58:40.127Z,67.14
2022-08-30T08:01:13.654Z,66.89
2022-08-30T08:03:46.790Z,66.47
2022-08-30T08:06:21.805Z,65.92
2022-08-30T08:08:56.369Z,65.23
2022-08-30T08:11:33.297Z,65.02
2022-08-30T08:14:06.380Z,64.70
2022-08-30T08:16:39.000Z,64.26
2022-08-30T08:19:12.252Z,64.46
2022-08-30T08:21:44.780Z,64.43
2022-08-30T08:24:17.198Z,63.96
2022-08-30T08:26:49.603Z,64.16
2022-08-30T08:29:22.852Z,63.54
2022-08-30T08:31:57.156Z,63.65
2022-08-30T08:34:29.628Z,63.53
2022-08-30T08:37:02.173Z,63.04
2022-08-30T08:39:34.611Z,62.71
2022-08-30T08:42:20.475Z,61.91
2022-08-30T08:45:13.870Z,61.80
2022-08-30T08:48:09.457Z,60.53
2022-08-30T08:51:03.274Z,60.47
2022-08-30T08:53:45.366Z,60.45
2022-08-30T08:56:21.817Z,59.41
2022-08-30T08:58:57.741Z,59.20
2022-08-30T09:01:31.100Z,58.55
2022-08-30T09:04:12.948Z,57.77
2022-08-30T09:06:51.512Z,57.43
2022-08-30T09:09:30.377Z,57.48
2022-08-30T09:12:04.491Z,56.50
2022-08-30T09:14:46.117Z,55.70
2022-08-30T09:17:20.965Z,55.96
2022-08-30T09:19:53.523Z,55.39
2022-08-30T09:22:37.709Z,55.13
2022-08-30T09:25:13.184Z,55.02
2022-08-30T09:27:49.168Z,54.52
2022-08-30T09:30:27.896Z,54.37
2022-08-30T09:33:03.079Z,54.06
2022-08-30T09:35:44.129Z,53.57
2022-08-30T09:38:45.996Z,53.22
2022-08-30T09:41:38.315Z,53.29
2022-08-30T09:44:22.003Z,53.33
2022-08-30T09:46:57.252Z,52.29
2022-08-30T09:49:38.610Z,52.05
2022-08-30T09:52:29.392Z,51.49
2022-08-30T09:55:14.931Z,51.57
2022-08-30T09:58:15.429Z,51.32
2022-08-30T10:00:56.941Z,51.24
2022-08-30T10:03:41.443Z,51.06
2022-08-30T10:06:27.968Z,51.46
2022-08-30T10:09:19.125Z,50.51
2022-08-30T10:12:15.341Z,50.04
2022-08-30T10:15:09.232Z,50.84
2022-08-30T10:18:05.471Z,49.92
2022-08-30T10:21:15.646Z,49.64
2022-08-30T10:24:10.014Z,49.53
2022-08-30T10:26:50.511Z,50.30
2022-08-30T10:29:30.369Z,49.66
2022-08-30T10:32:16.699Z,49.57
2022-08-30T10:34:59.135Z,49.69
2022-08-30T10:37:36.386Z,49.09
2022-08-30T10:40:33.845Z,49.38
2022-08-30T10:43:16.000Z,48.41
2022-08-30T10:45:51.043Z,49.01
2022-08-30T10:48:44.652Z,48.37
2022-08-30T10:51:26.896Z,47.83
2022-08-30T10:54:10.091Z,47.92
2022-08-30T10:56:44.859Z,47.58
2022-08-30T10:59:19.519Z,47.21
2022-08-30T11:02:26.860Z,46.48
2022-08-30T11:05:13.463Z,46.20
2022-08-30T11:08:08.264Z,46.04
2022-08-30T11:11:31.034Z,45.52
2022-08-30T11:14:06.178Z,45.39
2022-08-30T11:16:43.282Z,45.42
2022-08-30T11:19:32.141Z,45.00
2022-08-30T11:22:15.977Z,44.40
2022-08-30T11:25:09.887Z,45.16
2022-08-30T11:27:58.707Z,44.60
2022-08-30T11:30:31.325Z,44.39
2022-08-30T11:33:11.726Z,44.77
2022-08-30T11:35:50.236Z,43.92
2022-08-30T11:38:25.556Z,44.34
2022-08-30T11:40:58.923Z,44.32
2022-08-30T11:43:34.146Z,43.62
2022-08-30T11:46:28.115Z,43.54
2022-08-30T11:49:06.323Z,43.76
2022-08-30T11:52:26.658Z,42.66
2022-08-30T11:55:08.143Z,42.74
2022-08-30T11:58:08.231Z,42.36
2022-08-30T12:00:51.435Z,42.55
2022-08-30T12:03:31.359Z,42.87
2022-08-30T12:06:07.001Z,43.17
2022-08-30T12:08:47.303Z,42.12
2022-08-30T12:11:19.821Z,42.16
2022-08-30T12:13:54.760Z,41.79
2022-08-30T12:17:03.324Z,42.25
2022-08-30T12:19:35.857Z,42.01
2022-08-30T12:22:17.806Z,41.80
2022-08-30T12:24:52.606Z,41.68
2022-08-30T12:27:32.765Z,41.12
2022-08-30T12:30:08.442Z,41.22
2022-08-30T12:32:45.509Z,41.32
2022-08-30T12:35:27.886Z,40.95
2022-08-30T12:38:03.462Z,41.00
2022-08-30T12:40:36.043Z,40.61
2022-08-30T12:43:23.983Z,40.64
2022-08-30T12:46:01.193Z,40.89
2022-08-30T12:48:41.099Z,39.78
2022-08-30T12:51:28.508Z,40.32
2022-08-30T12:54:29.945Z,39.87
2022-08-30T12:57:25.546Z,39.24
2022-08-30T13:00:01.784Z,39.36
2022-08-30T13:02:53.416Z,38.90
2022-08-30T13:05:30.417Z,38.91
2022-08-30T13:08:28.396Z,38.05
2022-08-30T13:11:10.319Z,38.10
2022-08-30T13:13:52.059Z,37.75
2022-08-30T13:16:34.697Z,38.38
2022-08-30T13:19:35.032Z,38.07
2022-08-30T13:22:32.099Z,38.56
2022-08-30T13:25:06.435Z,37.77
2022-08-30T13:27:40.328Z,37.86
2022-08-30T13:30:18.211Z,37.96
2022-08-30T13:32:50.641Z,38.32
2022-08-30T13:35:23.538Z,38.29
2022-08-30T13:37:57.025Z,37.74
2022-08-30T13:40:29.698Z,37.33
2022-08-30T13:43:02.398Z,37.14
2022-08-30T13:45:42.850Z,37.35
2022-08-30T13:48:17.529Z,36.88
2022-08-30T13:50:57.508Z,37.25
2022-08-30T13:56:24.180Z,36.19
2022-08-30T13:59:02.883Z,35.96
2022-08-30T14:02:07.618Z,36.66
2022-08-30T14:04:29.002Z,36.01
2022-08-30T14:07:20.429Z,36.22
2022-08-30T14:09:53.659Z,36.04
2022-08-30T14:15:19.077Z,36.05
2022-08-30T14:17:51.576Z,35.32
2022-08-30T14:20:24.868Z,35.03
2022-08-30T14:22:59.239Z,35.08
2022-08-30T14:25:31.644Z,34.99
2022-08-30T14:28:04.291Z,35.40
2022-08-30T14:30:38.753Z,34.82
2022-08-30T14:33:11.846Z,34.42
2022-08-30T14:35:45.836Z,34.66
2022-08-30T14:38:18.740Z,33.12
2022-08-30T14:40:51.179Z,32.59
2022-08-30T14:43:23.645Z,32.32
2022-08-30T14:45:59.412Z,32.95
2022-08-30T14:48:31.873Z,33.31
2022-08-30T14:51:16.563Z,32.73
2022-08-30T14:53:53.304Z,32.61
2022-08-30T14:56:25.730Z,32.78
2022-08-30T14:59:00.525Z,33.21
2022-08-30T15:01:36.994Z,33.24
2022-08-30T15:04:10.703Z,33.65
2022-08-30T15:06:46.380Z,34.09
2022-08-30T15:09:23.470Z,34.10
2022-08-30T15:11:58.706Z,34.28
2022-08-30T15:14:32.057Z,34.01
2022-08-30T15:17:04.640Z,33.97
2022-08-30T15:19:37.057Z,33.98
2022-08-30T15:22:11.196Z,32.98
2022-08-30T15:24:44.025Z,33.46
2022-08-30T15:27:21.641Z,34.12
2022-08-30T15:29:54.134Z,34.84
2022-08-30T15:32:26.529Z,34.55
2022-08-30T15:35:00.142Z,34.51
2022-08-30T15:37:32.861Z,35.04
2022-08-30T15:40:06.430Z,34.83
2022-08-30T15:42:38.930Z,34.40
2022-08-30T15:45:11.724Z,35.33
2022-08-30T15:47:44.657Z,35.13
2022-08-30T15:50:17.422Z,36.23
2022-08-30T15:52:49.888Z,35.48
2022-08-30T15:55:23.061Z,35.43
2022-08-30T15:57:55.536Z,35.95
2022-08-30T16:00:28.214Z,36.93
2022-08-30T16:03:01.307Z,37.28
2022-08-30T16:05:34.160Z,36.99
2022-08-30T16:08:07.191Z,36.92
2022-08-30T16:10:40.190Z,37.37
2022-08-30T16:13:16.614Z,37.09
2022-08-30T16:15:49.150Z,37.37
2022-08-30T16:18:21.616Z,37.16
2022-08-30T16:21:06.936Z,36.67
2022-08-30T16:23:43.033Z,37.21
2022-08-30T16:26:20.010Z,36.79
2022-08-30T16:28:54.439Z,36.57
2022-08-30T16:31:29.220Z,36.76
2022-08-30T16:34:04.317Z,36.76
2022-08-30T16:36:37.102Z,36.81
2022-08-30T16:39:10.390Z,36.96
2022-08-30T16:41:44.760Z,36.64
2022-08-30T16:44:18.541Z,36.24
2022-08-30T16:46:52.699Z,36.13
2022-08-30T16:49:26.259Z,35.75
2022-08-30T16:51:58.661Z,35.35
2022-08-30T16:54:31.961Z,35.27
2022-08-30T16:57:06.452Z,35.27
2022-08-30T16:59:39.016Z,34.99
2022-08-30T17:02:11.467Z,35.72
2022-08-30T17:04:44.007Z,35.57
2022-08-30T17:07:19.675Z,34.54
2022-08-30T17:09:54.992Z,34.73
2022-08-30T17:12:28.240Z,34.93
2022-08-30T17:15:00.710Z,34.80
2022-08-30T17:17:33.193Z,34.99
2022-08-30T17:20:08.274Z,35.28
2022-08-30T17:22:40.771Z,34.84
2022-08-30T17:25:14.370Z,35.47
2022-08-30T17:27:47.799Z,35.87
2022-08-30T17:30:20.383Z,35.44
2022-08-30T17:32:53.583Z,36.29
2022-08-30T17:35:26.024Z,36.76
2022-08-30T17:37:58.562Z,37.13
2022-08-30T17:40:31.063Z,37.68
2022-08-30T17:43:03.872Z,37.77
2022-08-30T17:45:37.325Z,38.28
2022-08-30T17:48:09.957Z,38.34
2022-08-30T17:50:42.419Z,38.67
2022-08-30T17:53:15.385Z,38.87
2022-08-30T17:55:49.911Z,39.13
2022-08-30T17:58:22.528Z,39.54
2022-08-30T18:01:12.165Z,39.78
2022-08-30T18:03:45.415Z,39.96
2022-08-30T18:06:18.653Z,40.33
2022-08-30T18:08:51.081Z,40.46
2022-08-30T18:11:23.707Z,40.65
2022-08-30T18:13:56.301Z,40.67
2022-08-30T18:16:29.028Z,41.20
2022-08-30T18:19:05.336Z,41.33
2022-08-30T18:21:42.132Z,41.32
2022-08-30T18:24:16.089Z,41.44
2022-08-30T18:26:49.160Z,41.90
2022-08-30T18:29:29.272Z,41.87
2022-08-30T18:32:04.328Z,42.35
2022-08-30T18:34:36.781Z,42.19
2022-08-30T18:40:04.069Z,42.25
2022-08-30T18:42:36.899Z,41.78
2022-08-30T18:45:14.921Z,41.67
2022-08-30T18:47:50.652Z,41.84
2022-08-30T18:50:23.554Z,42.44
2022-08-30T18:52:57.127Z,42.33
2022-08-30T18:55:32.316Z,42.91
2022-08-30T18:58:07.029Z,42.85
2022-08-30T19:00:39.581Z,43.08
2022-08-30T19:03:12.732Z,43.13
2022-08-30T19:05:45.145Z,42.94
2022-08-30T19:08:17.895Z,43.62
2022-08-30T19:10:50.371Z,43.37
2022-08-30T19:13:24.392Z,43.82
2022-08-30T19:15:57.212Z,43.85
2022-08-30T19:18:30.596Z,44.14
2022-08-30T19:21:04.539Z,44.52
2022-08-30T19:23:37.807Z,44.55
2022-08-30T19:26:11.033Z,44.86
2022-08-30T19:28:43.522Z,45.13
2022-08-30T19:31:16.010Z,45.61
2022-08-30T19:33:48.736Z,45.02
2022-08-30T19:36:21.450Z,45.38
2022-08-30T19:38:55.365Z,45.87
2022-08-30T19:41:28.493Z,45.67
2022-08-30T19:44:03.095Z,46.02
2022-08-30T19:46:35.924Z,45.77
2022-08-30T19:49:10.349Z,46.33
2022-08-30T19:51:46.540Z,46.54
2022-08-30T19:54:20.134Z,46.41
2022-08-30T19:56:52.811Z,46.74
2022-08-30T19:59:28.453Z,47.01
2022-08-30T20:02:02.577Z,47.15
2022-08-30T20:04:35.612Z,47.34
2022-08-30T20:07:08.296Z,47.47
2022-08-30T20:09:40.728Z,47.50
2022-08-30T20:12:14.159Z,47.94
2022-08-30T20:14:47.332Z,48.42
2022-08-30T20:17:19.840Z,48.42
2022-08-30T20:19:53.112Z,48.65
2022-08-30T20:22:26.297Z,48.88
2022-08-30T20:24:28.370Z,42.50
2022-08-30T20:24:59.277Z,48.94
2022-08-30T20:27:31.735Z,49.27
2022-08-30T20:30:06.748Z,49.36
2022-08-30T20:32:39.284Z,49.84
2022-08-30T20:35:13.750Z,49.97
2022-08-30T20:37:46.653Z,50.14
2022-08-30T20:40:20.528Z,50.60
2022-08-30T20:42:53.002Z,50.54
2022-08-30T20:45:25.417Z,51.21
2022-08-30T20:48:05.117Z,51.00
2022-08-30T20:50:41.275Z,51.53
2022-08-30T20:53:15.636Z,51.95
2022-08-30T20:55:48.131Z,52.17
2022-08-30T20:58:20.565Z,52.45
2022-08-30T21:00:54.634Z,52.45
2022-08-30T21:03:27.489Z,52.90
2022-08-30T21:06:00.562Z,53.22
2022-08-30T21:08:33.768Z,53.27
2022-08-30T21:11:06.965Z,53.44
2022-08-30T21:13:39.638Z,53.84
2022-08-30T21:16:12.477Z,54.10
2022-08-30T21:18:44.967Z,54.23
2022-08-30T21:21:21.306Z,54.52
2022-08-30T21:23:58.412Z,54.12
2022-08-30T21:26:31.279Z,54.74
2022-08-30T21:29:04.279Z,54.98
2022-08-30T21:31:40.043Z,55.48
2022-08-30T21:34:17.190Z,55.82
2022-08-30T21:36:50.581Z,55.72
2022-08-30T21:39:26.209Z,55.90
2022-08-30T21:41:59.403Z,56.21
2022-08-30T21:44:31.813Z,56.34
2022-08-30T21:47:04.692Z,56.38
2022-08-30T21:49:37.390Z,56.71
2022-08-30T21:52:09.810Z,56.98
2022-08-30T21:54:42.219Z,57.65
2022-08-30T21:57:16.798Z,57.38
2022-08-30T21:59:49.248Z,58.14
2022-08-30T22:02:22.396Z,57.95
2022-08-30T22:04:55.899Z,58.69
2022-08-30T22:07:28.300Z,58.94
2022-08-30T22:10:00.706Z,58.94
2022-08-30T22:12:33.509Z,59.67
2022-08-30T22:15:07.202Z,59.61
2022-08-30T22:17:40.934Z,60.12
2022-08-30T22:20:18.327Z,60.54
2022-08-30T22:22:51.164Z,60.57
2022-08-30T22:25:23.583Z,60.96
2022-08-30T22:27:55.995Z,60.85
2022-08-30T22:30:28.441Z,60.59
2022-08-30T22:33:00.877Z,61.21
2022-08-30T22:35:36.249Z,61.35
2022-08-30T22:38:09.009Z,61.52
2022-08-30T22:40:46.631Z,61.96
2022-08-30T22:43:19.391Z,61.34
2022-08-30T22:45:51.951Z,62.36
2022-08-30T22:48:24.734Z,62.42
2022-08-30T22:50:57.149Z,62.69
2022-08-30T22:53:30.079Z,62.46
2022-08-30T22:56:14.589Z,63.28
2022-08-30T22:58:48.383Z,63.37
2022-08-30T23:01:26.913Z,63.47
2022-08-30T23:04:01.047Z,63.57
2022-08-30T23:06:34.347Z,64.25
2022-08-30T23:09:07.303Z,63.99
2022-08-30T23:11:39.779Z,64.55
2022-08-30T23:14:12.423Z,64.62
2022-08-30T23:16:45.189Z,65.13
2022-08-30T23:19:17.707Z,65.43
2022-08-30T23:21:50.974Z,66.04
2022-08-30T23:24:41.774Z,65.87
2022-08-30T23:27:37.703Z,65.83
2022-08-30T23:30:30.287Z,66.37
2022-08-30T23:33:21.064Z,66.61
2022-08-30T23:36:12.406Z,66.99
2022-08-30T23:39:03.971Z,67.43
2022-08-30T23:41:55.651Z,67.20
2022-08-30T23:44:46.510Z,67.50
2022-08-30T23:47:37.499Z,67.70
2022-08-30T23:50:28.511Z,67.90
2022-08-30T23:53:19.798Z,68.25
2022-08-30T23:56:10.719Z,68.77
2022-08-30T23:59:02.465Z,68.83
